Time;durP1;ratioP1;P1;durP2;ratioP2;P2;SDS_P1;SDS_P2;PMS_P1;PMS_P2;Temp;Humidity;BMP_temperature;BMP_pressure;BME280_temperature;BME280_humidity;BME280_pressure;Samples;Min_cycle;Max_cycle;Signal;HPM_P1;HPM_P2
2021/06/27 00:00:40;;;;;;;109.40;74.00;;;18.40;99.90;;;;;;5033062;28;20021;-59
2021/06/27 00:03:05;;;;;;;113.13;77.60;;;18.40;99.90;;;;;;5051101;28;20049;-59
2021/06/27 00:05:33;;;;;;;119.75;78.10;;;18.50;99.90;;;;;;5050637;28;20064;-59
2021/06/27 00:08:00;;;;;;;111.97;73.05;;;18.50;99.90;;;;;;5050636;28;20025;-59
2021/06/27 00:10:36;;;;;;;106.63;71.88;;;18.50;99.90;;;;;;5050558;28;20029;-59
2021/06/27 00:13:02;;;;;;;112.10;73.60;;;18.40;99.90;;;;;;5051028;28;20385;-59
2021/06/27 00:15:34;;;;;;;112.53;75.38;;;18.30;99.90;;;;;;5050765;28;20068;-59
2021/06/27 00:18:01;;;;;;;116.23;77.23;;;18.30;99.90;;;;;;5050826;28;20025;-59
2021/06/27 00:20:29;;;;;;;112.18;76.22;;;18.30;99.90;;;;;;5050518;28;20032;-59
2021/06/27 00:22:54;;;;;;;110.35;75.20;;;18.20;99.90;;;;;;5050435;28;20032;-58
2021/06/27 00:25:24;;;;;;;112.53;74.70;;;18.20;99.90;;;;;;5050585;28;20029;-59
2021/06/27 00:27:51;;;;;;;114.10;76.13;;;18.20;99.90;;;;;;5050394;28;20028;-59
2021/06/27 00:30:19;;;;;;;114.18;76.82;;;18.10;99.90;;;;;;5050525;28;20032;-59
2021/06/27 00:32:45;;;;;;;115.93;75.70;;;18.10;99.90;;;;;;5050927;28;20119;-59
2021/06/27 00:35:13;;;;;;;116.22;77.38;;;18.10;99.90;;;;;;5054525;28;20021;-58
2021/06/27 00:37:39;;;;;;;118.30;77.68;;;18.10;99.90;;;;;;5036445;28;20040;-58
2021/06/27 00:40:09;;;;;;;117.10;76.90;;;18.10;99.90;;;;;;5036254;28;20049;-59
2021/06/27 00:42:34;;;;;;;114.70;76.18;;;18.10;99.90;;;;;;5054264;28;20020;-59
2021/06/27 00:45:01;;;;;;;111.47;75.03;;;18.10;99.90;;;;;;5054718;28;20021;-58
2021/06/27 00:47:31;;;;;;;119.60;76.47;;;18.10;99.90;;;;;;5054255;28;20029;-58
2021/06/27 00:49:57;;;;;;;115.53;76.65;;;18.10;99.90;;;;;;5054305;28;20044;-58
2021/06/27 00:52:23;;;;;;;120.65;77.88;;;18.20;99.90;;;;;;5054575;28;20037;-58
2021/06/27 00:54:48;;;;;;;114.47;77.57;;;18.20;99.90;;;;;;5054151;28;20539;-58
2021/06/27 00:57:14;;;;;;;120.75;76.85;;;18.20;99.90;;;;;;5054064;28;20028;-58
2021/06/27 00:59:40;;;;;;;112.90;74.68;;;18.20;99.90;;;;;;5054028;28;20082;-59
2021/06/27 01:02:06;;;;;;;114.47;74.80;;;18.20;99.90;;;;;;5054235;28;20370;-59
2021/06/27 01:04:31;;;;;;;108.93;73.25;;;18.20;99.90;;;;;;5054051;28;20029;-59
2021/06/27 01:06:57;;;;;;;108.03;71.88;;;18.20;99.90;;;;;;5035773;28;20029;-59
2021/06/27 01:09:23;;;;;;;106.07;73.00;;;18.20;99.90;;;;;;5036056;28;20036;-59
2021/06/27 01:11:49;;;;;;;110.38;74.80;;;18.20;99.90;;;;;;5053899;28;20037;-59
2021/06/27 01:14:15;;;;;;;107.68;73.38;;;18.20;99.90;;;;;;5054010;28;20504;-58
2021/06/27 01:16:41;;;;;;;110.68;75.15;;;18.10;99.90;;;;;;5053890;28;20109;-58
2021/06/27 01:19:09;;;;;;;109.85;73.45;;;18.10;99.90;;;;;;5053599;28;20432;-58
2021/06/27 01:21:36;;;;;;;111.25;74.28;;;18.10;99.90;;;;;;5053533;28;20055;-58
2021/06/27 01:24:05;;;;;;;105.50;73.40;;;18.10;99.90;;;;;;5053656;28;20032;-58
2021/06/27 01:26:31;;;;;;;114.03;76.40;;;18.10;99.90;;;;;;5035682;28;20409;-58
2021/06/27 01:28:58;;;;;;;102.18;72.50;;;18.10;99.90;;;;;;5053444;28;20033;-59
2021/06/27 01:31:25;;;;;;;108.30;75.82;;;18.10;99.90;;;;;;5053313;28;20025;-58
2021/06/27 01:33:52;;;;;;;108.05;75.32;;;18.20;99.90;;;;;;5053525;28;20056;-58
2021/06/27 01:36:18;;;;;;;106.57;73.25;;;18.10;99.90;;;;;;5053246;28;20017;-58
2021/06/27 01:38:43;;;;;;;105.78;73.80;;;18.10;99.90;;;;;;5053196;28;20045;-58
2021/06/27 01:41:09;;;;;;;102.30;71.68;;;18.10;99.90;;;;;;5053542;28;20096;-59
2021/06/27 01:43:35;;;;;;;109.72;76.22;;;18.10;99.90;;;;;;5035131;28;20024;-59
2021/06/27 01:46:01;;;;;;;112.10;76.80;;;18.10;99.90;;;;;;5053222;28;20377;-59
2021/06/27 01:48:29;;;;;;;112.63;77.47;;;18.10;99.90;;;;;;5053205;28;20047;-59
2021/06/27 01:50:56;;;;;;;107.90;74.05;;;18.00;99.90;;;;;;5053034;28;20021;-59
2021/06/27 01:53:25;;;;;;;111.07;76.30;;;18.10;99.90;;;;;;5053165;28;20485;-59
2021/06/27 01:56:07;;;;;;;110.25;75.88;;;18.10;99.90;;;;;;5052917;28;20017;-59
2021/06/27 01:58:37;;;;;;;113.50;76.35;;;18.10;99.90;;;;;;5052978;28;20053;-59
2021/06/27 02:01:16;;;;;;;110.13;73.65;;;18.20;99.90;;;;;;5052837;28;20025;-59
2021/06/27 02:03:42;;;;;;;109.60;74.95;;;18.20;99.90;;;;;;5053172;28;20109;-59
2021/06/27 02:06:11;;;;;;;120.25;79.60;;;18.40;99.90;;;;;;5034995;28;20017;-59
2021/06/27 02:08:41;;;;;;;129.48;82.45;;;18.70;99.90;;;;;;5034876;28;20432;-59
2021/06/27 02:11:08;;;;;;;122.38;82.50;;;18.90;99.90;;;;;;5052793;28;20051;-59
2021/06/27 02:13:34;;;;;;;125.70;82.78;;;18.90;99.90;;;;;;5034802;28;20035;-60
2021/06/27 02:16:00;;;;;;;116.03;77.15;;;19.00;99.90;;;;;;5053011;28;20021;-59
2021/06/27 02:18:25;;;;;;;119.82;78.43;;;18.80;99.90;;;;;;5052621;28;20351;-59
2021/06/27 02:20:53;;;;;;;116.30;79.05;;;18.50;99.90;;;;;;5034610;28;20553;-60
2021/06/27 02:23:18;;;;;;;125.40;82.18;;;18.50;99.90;;;;;;5052685;28;20021;-59
2021/06/27 02:25:44;;;;;;;124.97;81.53;;;18.70;99.90;;;;;;5052507;28;20039;-59
2021/06/27 02:28:10;;;;;;;122.95;82.07;;;18.70;99.90;;;;;;5052288;28;20434;-59
2021/06/27 02:30:36;;;;;;;129.63;84.53;;;18.70;99.90;;;;;;5052580;28;20390;-57
2021/06/27 02:33:03;;;;;;;122.80;80.93;;;18.80;99.90;;;;;;5052172;28;20036;-58
2021/06/27 02:35:28;;;;;;;120.28;79.43;;;18.60;99.90;;;;;;5034638;28;20032;-59
2021/06/27 02:37:54;;;;;;;113.30;76.93;;;18.40;99.90;;;;;;5052262;28;20478;-59
2021/06/27 02:40:20;;;;;;;106.72;73.10;;;18.30;99.90;;;;;;5052082;28;20044;-59
2021/06/27 02:42:46;;;;;;;107.30;74.10;;;18.20;99.90;;;;;;5034419;28;20036;-59
2021/06/27 02:45:12;;;;;;;112.07;77.32;;;18.20;99.90;;;;;;5052235;28;20029;-59
2021/06/27 02:47:38;;;;;;;108.25;73.55;;;18.20;99.90;;;;;;5051985;28;20029;-59
2021/06/27 02:50:07;;;;;;;103.90;72.13;;;18.10;99.90;;;;;;5051955;28;20390;-59
2021/06/27 02:52:33;;;;;;;97.28;69.30;;;18.00;99.90;;;;;;5051640;28;20029;-59
2021/06/27 02:54:59;;;;;;;96.15;70.15;;;17.90;99.90;;;;;;5051830;28;20040;-59
2021/06/27 02:57:24;;;;;;;96.05;69.60;;;17.90;99.90;;;;;;5051259;28;20025;-59
2021/06/27 02:59:50;;;;;;;95.45;68.65;;;17.80;99.90;;;;;;5051617;28;20098;-59
2021/06/27 03:02:15;;;;;;;94.32;67.90;;;17.80;99.90;;;;;;5051916;28;20025;-59
2021/06/27 03:04:41;;;;;;;94.80;69.25;;;17.80;99.90;;;;;;5051875;28;20041;-59
2021/06/27 03:07:07;;;;;;;95.47;69.97;;;17.80;99.90;;;;;;5051821;28;20028;-59
2021/06/27 03:09:32;;;;;;;93.53;69.57;;;17.80;99.90;;;;;;5033822;28;20029;-59
2021/06/27 03:11:58;;;;;;;101.68;72.47;;;17.80;99.90;;;;;;5051458;28;20481;-59
2021/06/27 03:14:23;;;;;;;104.63;71.95;;;17.80;99.90;;;;;;5051683;28;20040;-59
2021/06/27 03:16:49;;;;;;;102.47;72.45;;;17.80;99.90;;;;;;5051681;28;20033;-59
2021/06/27 03:19:15;;;;;;;101.35;71.88;;;17.80;99.90;;;;;;5051523;28;20395;-59
2021/06/27 03:21:42;;;;;;;103.15;72.68;;;17.70;99.90;;;;;;5051328;28;20031;-59
2021/06/27 03:24:08;;;;;;;105.60;73.78;;;17.80;99.90;;;;;;5051427;28;20033;-59
2021/06/27 03:26:34;;;;;;;94.95;71.20;;;17.80;99.90;;;;;;5033361;28;20087;-59
2021/06/27 03:28:59;;;;;;;97.75;70.75;;;17.80;99.90;;;;;;5051167;28;20583;-59
2021/06/27 03:31:25;;;;;;;98.22;69.93;;;17.80;99.90;;;;;;5051087;28;20025;-59
2021/06/27 03:33:50;;;;;;;103.72;70.25;;;17.90;99.90;;;;;;5051182;28;20113;-59
2021/06/27 03:36:17;;;;;;;98.13;70.38;;;17.90;99.90;;;;;;5051443;28;20029;-59
2021/06/27 03:38:48;;;;;;;96.38;71.03;;;17.90;99.90;;;;;;5050950;28;20048;-59
2021/06/27 03:41:20;;;;;;;92.63;68.03;;;17.90;99.90;;;;;;5051104;28;20410;-59
2021/06/27 03:43:45;;;;;;;92.82;67.07;;;17.90;99.90;;;;;;5033562;28;20033;-59
2021/06/27 03:46:12;;;;;;;89.30;65.80;;;17.80;99.90;;;;;;5050933;28;20039;-59
2021/06/27 03:48:38;;;;;;;92.72;66.25;;;17.80;99.90;;;;;;5050824;28;20382;-59
2021/06/27 03:51:04;;;;;;;87.40;66.47;;;17.70;99.90;;;;;;5050831;28;20029;-59
2021/06/27 03:53:29;;;;;;;90.25;66.55;;;17.70;99.90;;;;;;5033050;28;20032;-59
2021/06/27 03:55:57;;;;;;;87.82;66.60;;;17.60;99.90;;;;;;5050815;28;20025;-59
2021/06/27 03:58:24;;;;;;;94.65;69.15;;;17.60;99.90;;;;;;5050783;28;20025;-59
2021/06/27 04:00:50;;;;;;;92.68;68.40;;;17.60;99.90;;;;;;5050599;28;20024;-59
2021/06/27 04:03:16;;;;;;;94.47;69.80;;;17.70;99.90;;;;;;5050851;28;20111;-59
2021/06/27 04:05:41;;;;;;;98.82;70.55;;;17.70;99.90;;;;;;5050856;28;20033;-59
2021/06/27 04:08:07;;;;;;;97.82;71.43;;;17.70;99.90;;;;;;5050762;28;20116;-59
2021/06/27 04:10:33;;;;;;;97.97;69.53;;;17.80;99.90;;;;;;5050816;28;20048;-59
2021/06/27 04:12:58;;;;;;;91.35;67.22;;;17.80;99.90;;;;;;5050500;28;20032;-59
2021/06/27 04:15:24;;;;;;;93.53;68.22;;;17.80;99.90;;;;;;5050726;28;20028;-59
2021/06/27 04:17:50;;;;;;;92.35;65.85;;;17.80;99.90;;;;;;5050679;28;20455;-59
2021/06/27 04:20:15;;;;;;;88.78;66.15;;;17.80;99.90;;;;;;5050508;28;20104;-59
2021/06/27 04:22:41;;;;;;;90.70;68.40;;;17.90;99.90;;;;;;5050798;28;20024;-59
2021/06/27 04:25:08;;;;;;;93.32;66.65;;;17.90;99.90;;;;;;5050519;28;20033;-59
2021/06/27 04:27:34;;;;;;;90.25;65.80;;;18.00;99.90;;;;;;5032582;28;20056;-59
2021/06/27 04:29:59;;;;;;;88.00;64.85;;;18.10;99.90;;;;;;5050615;28;20065;-59
2021/06/27 04:32:26;;;;;;;88.00;65.03;;;18.20;99.90;;;;;;5050347;28;20033;-59
2021/06/27 04:34:52;;;;;;;81.68;62.50;;;18.20;99.90;;;;;;5050508;28;20123;-59
2021/06/27 04:37:18;;;;;;;83.43;60.10;;;18.30;99.90;;;;;;5050349;28;20460;-59
2021/06/27 04:39:43;;;;;;;82.22;60.38;;;18.40;99.90;;;;;;5050328;28;20045;-59
2021/06/27 04:42:09;;;;;;;74.80;58.88;;;18.50;99.90;;;;;;5050353;28;20534;-59
2021/06/27 04:44:35;;;;;;;75.10;57.78;;;18.50;99.90;;;;;;5050532;28;20033;-59
2021/06/27 04:47:01;;;;;;;77.13;58.00;;;18.50;99.90;;;;;;5032425;28;20115;-59
2021/06/27 04:49:27;;;;;;;75.75;58.38;;;18.60;99.90;;;;;;5050272;28;20075;-59
2021/06/27 04:51:53;;;;;;;74.60;58.78;;;18.90;99.90;;;;;;5032327;28;20033;-59
2021/06/27 04:54:18;;;;;;;73.95;57.00;;;19.00;99.90;;;;;;5050482;28;20055;-59
2021/06/27 04:56:44;;;;;;;73.57;56.85;;;19.10;99.90;;;;;;5050240;28;20032;-59
2021/06/27 04:59:10;;;;;;;76.50;59.53;;;19.20;99.90;;;;;;5050135;28;20021;-58
2021/06/27 05:01:36;;;;;;;78.82;59.70;;;19.40;99.90;;;;;;5050666;28;20021;-58
2021/06/27 05:04:02;;;;;;;79.10;61.67;;;19.50;99.90;;;;;;5032415;28;20410;-59
2021/06/27 05:06:27;;;;;;;82.82;64.75;;;19.50;99.90;;;;;;5050107;28;20474;-59
2021/06/27 05:08:53;;;;;;;81.38;61.92;;;19.40;99.90;;;;;;5050322;28;20029;-59
2021/06/27 05:11:18;;;;;;;74.32;59.75;;;19.40;99.90;;;;;;5050008;28;20057;-59
2021/06/27 05:13:44;;;;;;;76.65;59.17;;;19.20;99.90;;;;;;5032206;28;20033;-59
2021/06/27 05:16:10;;;;;;;80.30;60.22;;;19.00;99.90;;;;;;5050008;28;20017;-59
2021/06/27 05:18:36;;;;;;;75.57;58.15;;;19.00;99.90;;;;;;5050195;28;20048;-59
2021/06/27 05:21:01;;;;;;;79.53;60.05;;;19.00;99.90;;;;;;5053717;28;20104;-59
2021/06/27 05:23:27;;;;;;;75.55;58.03;;;19.10;99.90;;;;;;5035812;28;20037;-58
2021/06/27 05:25:52;;;;;;;76.82;60.00;;;19.00;99.90;;;;;;5053799;28;20021;-58
2021/06/27 05:28:18;;;;;;;72.97;57.85;;;19.00;99.90;;;;;;5053548;28;20024;-59
2021/06/27 05:30:44;;;;;;;79.03;60.28;;;19.00;99.90;;;;;;5053704;28;20021;-59
2021/06/27 05:33:09;;;;;;;82.95;61.72;;;19.20;99.90;;;;;;5053591;28;20036;-59
2021/06/27 05:35:35;;;;;;;83.95;64.72;;;19.50;99.90;;;;;;5053509;28;20021;-58
2021/06/27 05:38:01;;;;;;;80.07;62.08;;;19.60;99.90;;;;;;5053461;28;20032;-58
2021/06/27 05:40:26;;;;;;;87.95;62.08;;;19.30;99.90;;;;;;5053049;28;20512;-58
2021/06/27 05:42:52;;;;;;;83.18;63.35;;;19.30;99.90;;;;;;5053226;28;20033;-58
2021/06/27 05:45:18;;;;;;;81.30;63.08;;;19.40;99.90;;;;;;5053644;28;20104;-58
2021/06/27 05:47:43;;;;;;;77.70;60.85;;;19.40;99.90;;;;;;5035285;28;20529;-58
2021/06/27 05:50:09;;;;;;;79.95;63.00;;;19.30;99.90;;;;;;5035321;28;20029;-58
2021/06/27 05:52:36;;;;;;;82.38;61.83;;;19.30;99.90;;;;;;5053056;28;20447;-58
2021/06/27 05:55:02;;;;;;;77.88;60.17;;;19.20;99.90;;;;;;5053395;28;20355;-58
2021/06/27 05:57:28;;;;;;;75.63;57.85;;;19.20;99.90;;;;;;5052843;28;20052;-58
2021/06/27 05:59:53;;;;;;;70.53;55.85;;;19.10;99.90;;;;;;5052922;28;20500;-58
2021/06/27 06:02:19;;;;;;;70.82;53.92;;;19.20;99.90;;;;;;5052882;28;20079;-58
2021/06/27 06:04:45;;;;;;;68.68;53.55;;;19.20;99.90;;;;;;5053151;28;20063;-58
2021/06/27 06:07:10;;;;;;;66.85;53.50;;;19.20;99.90;;;;;;5052804;28;20028;-58
2021/06/27 06:09:36;;;;;;;63.72;51.53;;;19.20;99.90;;;;;;5052904;28;20025;-59
2021/06/27 06:12:01;;;;;;;67.53;52.22;;;19.20;99.90;;;;;;5052704;28;20121;-58
2021/06/27 06:14:27;;;;;;;64.90;52.00;;;19.40;99.90;;;;;;5052782;28;20029;-58
2021/06/27 06:16:53;;;;;;;65.38;53.42;;;19.50;99.90;;;;;;5052578;28;20053;-58
2021/06/27 06:19:19;;;;;;;70.57;54.90;;;19.70;99.90;;;;;;5034672;28;20032;-58
2021/06/27 06:21:47;;;;;;;67.72;53.35;;;19.90;99.90;;;;;;5052549;28;20106;-58
2021/06/27 06:24:12;;;;;;;66.53;54.88;;;20.00;99.90;;;;;;5052754;28;20029;-58
2021/06/27 06:26:38;;;;;;;68.32;53.13;;;19.90;99.90;;;;;;5052573;28;20024;-58
2021/06/27 06:29:04;;;;;;;70.75;54.80;;;20.00;99.90;;;;;;5052306;28;20021;-58
2021/06/27 06:31:30;;;;;;;66.45;54.47;;;20.00;99.90;;;;;;5051304;28;20021;-58
2021/06/27 06:33:56;;;;;;;68.90;54.20;;;20.20;99.90;;;;;;5052506;28;20517;-58
2021/06/27 06:36:21;;;;;;;64.22;51.70;;;20.10;99.90;;;;;;5052247;28;20798;-58
2021/06/27 06:38:47;;;;;;;65.30;51.15;;;20.00;99.90;;;;;;5051996;28;20131;-58
2021/06/27 06:41:13;;;;;;;60.22;50.20;;;20.00;99.90;;;;;;5052074;28;20124;-58
2021/06/27 06:43:38;;;;;;;61.10;49.10;;;20.10;99.90;;;;;;5052173;28;20048;-58
2021/06/27 06:46:04;;;;;;;61.17;48.78;;;20.00;99.90;;;;;;5052188;28;20052;-59
2021/06/27 06:48:30;;;;;;;56.00;45.72;;;20.00;99.90;;;;;;5052222;28;20111;-59
2021/06/27 06:50:55;;;;;;;57.58;47.40;;;20.10;99.90;;;;;;5052244;28;20017;-59
2021/06/27 06:53:21;;;;;;;57.72;45.58;;;20.20;99.90;;;;;;5052007;28;20040;-59
2021/06/27 06:55:46;;;;;;;54.20;43.65;;;20.50;99.90;;;;;;5052306;28;20040;-59
2021/06/27 06:58:13;;;;;;;54.40;44.85;;;20.60;99.90;;;;;;5052064;28;20017;-59
2021/06/27 07:00:38;;;;;;;50.20;42.33;;;20.80;99.90;;;;;;5051943;28;20108;-59
2021/06/27 07:03:04;;;;;;;49.00;41.45;;;20.70;99.90;;;;;;5052018;28;20033;-59
2021/06/27 07:05:30;;;;;;;49.17;40.85;;;20.90;99.90;;;;;;5051927;28;20025;-59
2021/06/27 07:07:56;;;;;;;47.63;39.35;;;21.10;99.90;;;;;;5051692;28;20087;-59
2021/06/27 07:10:22;;;;;;;43.55;36.80;;;21.70;99.90;;;;;;5051749;28;20025;-57
2021/06/27 07:12:47;;;;;;;43.75;35.55;;;21.80;99.90;;;;;;5051350;28;20349;-57
2021/06/27 07:15:13;;;;;;;46.05;36.75;;;21.60;99.90;;;;;;5051657;28;20025;-57
2021/06/27 07:17:39;;;;;;;45.33;37.28;;;21.70;99.90;;;;;;5051314;28;20075;-57
2021/06/27 07:20:07;;;;;;;40.28;35.92;;;21.80;99.90;;;;;;5033303;28;20071;-57
2021/06/27 07:22:32;;;;;;;39.85;33.90;;;21.70;99.90;;;;;;5051315;28;20033;-57
2021/06/27 07:24:58;;;;;;;38.47;33.92;;;21.60;99.90;;;;;;5051522;28;20025;-57
2021/06/27 07:27:23;;;;;;;39.00;33.95;;;21.60;99.90;;;;;;5051405;28;20691;-58
2021/06/27 07:29:50;;;;;;;38.10;32.50;;;21.80;99.90;;;;;;5051502;28;20024;-59
2021/06/27 07:32:16;;;;;;;39.13;34.40;;;21.70;99.90;;;;;;5051155;28;20035;-59
2021/06/27 07:34:41;;;;;;;41.25;35.83;;;21.90;99.90;;;;;;5051408;28;20573;-59
2021/06/27 07:37:08;;;;;;;41.33;34.70;;;22.00;99.90;;;;;;5051720;28;20033;-59
2021/06/27 07:39:34;;;;;;;40.55;35.15;;;21.90;99.90;;;;;;5033231;28;20064;-59
2021/06/27 07:42:00;;;;;;;37.35;33.08;;;21.70;99.90;;;;;;5051312;28;20131;-58
2021/06/27 07:44:25;;;;;;;38.63;34.00;;;21.50;99.90;;;;;;5051241;28;20028;-59
2021/06/27 07:46:51;;;;;;;41.53;33.17;;;21.60;99.90;;;;;;5051237;28;20107;-59
2021/06/27 07:49:17;;;;;;;38.70;33.25;;;21.70;99.90;;;;;;5033206;28;20029;-59
2021/06/27 07:51:42;;;;;;;36.63;30.80;;;21.80;99.90;;;;;;5032950;28;20028;-59
2021/06/27 07:54:08;;;;;;;35.70;29.83;;;21.80;99.90;;;;;;5051019;28;20052;-59
2021/06/27 07:56:34;;;;;;;33.33;29.73;;;21.90;99.90;;;;;;5050808;28;20017;-59
2021/06/27 07:58:59;;;;;;;33.05;28.60;;;22.00;99.90;;;;;;5050686;28;20474;-59
2021/06/27 08:01:25;;;;;;;31.92;27.67;;;22.20;99.90;;;;;;5050938;28;20017;-59
2021/06/27 08:03:51;;;;;;;34.08;28.25;;;22.20;99.90;;;;;;5050807;28;20021;-59
2021/06/27 08:06:17;;;;;;;30.45;27.30;;;22.30;99.90;;;;;;5033000;28;20032;-59
2021/06/27 08:08:43;;;;;;;33.60;28.35;;;22.50;99.90;;;;;;5032585;28;20021;-59
2021/06/27 08:11:09;;;;;;;31.77;27.67;;;22.80;99.90;;;;;;5050797;28;20021;-59
2021/06/27 08:13:35;;;;;;;29.08;25.95;;;22.80;99.90;;;;;;5050738;28;20028;-59
2021/06/27 08:16:01;;;;;;;28.98;25.52;;;23.00;99.90;;;;;;5050754;28;20021;-59
2021/06/27 08:18:26;;;;;;;27.88;24.90;;;23.20;99.90;;;;;;5050640;28;20048;-59
2021/06/27 08:20:52;;;;;;;27.15;24.33;;;23.70;99.90;;;;;;5050777;28;20105;-59
2021/06/27 08:23:18;;;;;;;25.73;22.67;;;23.80;99.90;;;;;;5050896;28;20036;-58
2021/06/27 08:25:43;;;;;;;28.10;22.80;;;24.10;99.90;;;;;;5050580;28;20041;-58
2021/06/27 08:28:09;;;;;;;24.30;21.90;;;24.60;99.90;;;;;;5032589;28;20382;-58
2021/06/27 08:30:35;;;;;;;24.05;21.27;;;24.80;99.90;;;;;;5050659;28;20437;-59
2021/06/27 08:33:01;;;;;;;24.60;20.35;;;24.80;99.90;;;;;;5050114;28;20031;-58
2021/06/27 08:35:29;;;;;;;22.33;20.02;;;24.60;99.90;;;;;;5050579;28;20025;-57
2021/06/27 08:37:55;;;;;;;22.50;20.17;;;24.90;99.90;;;;;;5032537;28;20070;-58
2021/06/27 08:40:21;;;;;;;22.55;20.23;;;25.00;99.90;;;;;;5050298;28;20047;-58
2021/06/27 08:42:47;;;;;;;22.88;19.48;;;25.00;99.90;;;;;;5055737;28;20465;-58
2021/06/27 08:45:16;;;;;;;21.40;18.95;;;25.00;99.90;;;;;;5058945;28;20024;-59
2021/06/27 08:47:43;;;;;;;19.70;17.65;;;25.40;99.90;;;;;;5059697;28;20024;-59
2021/06/27 08:50:11;;;;;;;20.02;17.98;;;25.70;99.90;;;;;;5060932;28;20428;-59
2021/06/27 08:52:37;;;;;;;19.90;17.90;;;25.70;99.90;;;;;;5064386;28;20035;-59
2021/06/27 08:55:04;;;;;;;24.15;18.92;;;25.60;99.90;;;;;;5061969;28;20457;-59
2021/06/27 08:57:30;;;;;;;21.08;18.60;;;25.50;99.90;;;;;;5069051;28;20027;-58
2021/06/27 08:59:58;;;;;;;20.67;18.42;;;25.30;99.90;;;;;;5061973;28;20741;-58
2021/06/27 09:02:23;;;;;;;21.08;19.05;;;25.50;99.90;;;;;;5067495;28;20056;-59
2021/06/27 09:04:49;;;;;;;22.02;19.73;;;25.90;99.90;;;;;;5074114;28;20110;-57
2021/06/27 09:07:44;;;;;;;22.85;18.85;;;25.80;99.90;;;;;;5074070;28;20074;-56
2021/06/27 09:10:16;;;;;;;22.05;19.95;;;26.00;99.90;;;;;;5035050;28;20071;-56
2021/06/27 09:12:56;;;;;;;21.33;19.23;;;25.90;99.90;;;;;;5073789;28;20082;-56
2021/06/27 09:15:35;;;;;;;22.17;19.83;;;25.50;99.90;;;;;;5073871;28;20056;-56
2021/06/27 09:18:07;;;;;;;21.63;19.42;;;25.40;99.90;;;;;;5073639;28;20381;-56
2021/06/27 09:20:33;;;;;;;21.08;18.52;;;25.30;99.90;;;;;;5073816;28;20382;-56
2021/06/27 09:22:59;;;;;;;21.23;18.25;;;25.30;99.90;;;;;;5073490;28;20032;-56
2021/06/27 09:25:27;;;;;;;20.15;17.92;;;25.30;99.90;;;;;;5074125;28;20033;-56
2021/06/27 09:28:03;;;;;;;20.75;18.75;;;25.30;99.90;;;;;;5055612;28;20071;-56
2021/06/27 09:30:32;;;;;;;19.17;17.23;;;25.30;99.90;;;;;;5073567;28;20496;-56
2021/06/27 09:33:07;;;;;;;20.95;17.50;;;25.60;99.90;;;;;;5073476;28;20135;-56
2021/06/27 09:36:04;;;;;;;20.20;18.10;;;25.70;99.90;;;;;;5073451;28;20021;-56
2021/06/27 09:38:51;;;;;;;21.45;19.15;;;25.80;99.90;;;;;;5073317;28;20024;-56
2021/06/27 09:41:33;;;;;;;20.63;18.42;;;25.60;99.90;;;;;;5055351;28;20107;-56
2021/06/27 09:44:08;;;;;;;19.77;17.83;;;25.30;99.90;;;;;;5055554;28;20020;-56
2021/06/27 09:46:36;;;;;;;20.30;17.98;;;25.30;99.90;;;;;;5055242;28;20029;-56
2021/06/27 09:49:16;;;;;;;23.13;18.75;;;25.10;99.90;;;;;;5073140;28;20428;-56
2021/06/27 09:51:59;;;;;;;21.20;19.10;;;25.10;99.90;;;;;;5055105;28;20112;-58
2021/06/27 09:54:26;;;;;;;22.38;20.15;;;24.80;99.90;;;;;;5073442;28;20462;-58
2021/06/27 09:56:53;;;;;;;21.35;19.15;;;24.50;99.90;;;;;;5072998;28;20466;-57
2021/06/27 09:59:21;;;;;;;23.00;20.48;;;24.40;99.90;;;;;;5073136;28;20020;-57
2021/06/27 10:01:47;;;;;;;24.05;20.27;;;24.20;99.90;;;;;;5073006;28;20417;-57
2021/06/27 10:04:25;;;;;;;23.33;20.60;;;24.20;99.90;;;;;;5070294;28;20052;-57
2021/06/27 10:06:52;;;;;;;22.50;20.40;;;24.30;99.90;;;;;;5052963;28;20439;-57
2021/06/27 10:09:24;;;;;;;22.27;20.08;;;24.40;99.90;;;;;;5052827;28;20083;-57
2021/06/27 10:12:07;;;;;;;22.87;19.37;;;24.40;99.90;;;;;;5052798;28;20083;-57
2021/06/27 10:14:40;;;;;;;22.70;19.67;;;24.40;99.90;;;;;;5052865;28;20268;-57
2021/06/27 10:17:05;;;;;;;23.40;20.42;;;24.60;99.90;;;;;;5052957;28;20033;-57
2021/06/27 10:19:32;;;;;;;22.00;19.77;;;24.70;99.90;;;;;;5052617;28;20386;-58
2021/06/27 10:21:59;;;;;;;21.30;19.10;;;24.60;99.90;;;;;;5052738;28;20096;-58
2021/06/27 10:24:26;;;;;;;21.45;18.98;;;24.50;99.90;;;;;;5052760;28;20667;-58
2021/06/27 10:26:53;;;;;;;23.92;19.77;;;24.60;99.90;;;;;;5052413;28;20136;-58
2021/06/27 10:29:20;;;;;;;21.10;18.70;;;24.50;99.90;;;;;;5052368;28;20070;-58
2021/06/27 10:31:46;;;;;;;21.75;19.35;;;24.50;99.90;;;;;;5052375;28;20047;-58
2021/06/27 10:34:12;;;;;;;21.83;19.52;;;24.70;99.90;;;;;;5052340;28;20027;-57
2021/06/27 10:36:42;;;;;;;22.10;19.40;;;24.80;99.90;;;;;;5052385;28;20052;-57
2021/06/27 10:39:10;;;;;;;23.00;20.77;;;24.70;99.90;;;;;;5052188;28;20052;-57
2021/06/27 10:42:00;;;;;;;22.25;20.10;;;24.70;99.90;;;;;;5052123;28;20047;-57
2021/06/27 10:44:50;;;;;;;23.45;19.75;;;24.90;99.90;;;;;;5052376;28;20041;-57
2021/06/27 10:47:33;;;;;;;20.75;18.63;;;24.90;99.90;;;;;;5051955;28;20029;-57
2021/06/27 10:50:09;;;;;;;21.25;19.10;;;25.10;99.90;;;;;;5051922;28;20025;-57
2021/06/27 10:52:53;;;;;;;20.58;18.50;;;25.10;99.90;;;;;;5051812;28;20025;-57
2021/06/27 10:55:26;;;;;;;19.85;17.45;;;25.20;99.90;;;;;;5052107;28;20355;-57
2021/06/27 10:58:06;;;;;;;21.13;19.02;;;25.40;99.90;;;;;;5034129;28;20104;-57
2021/06/27 11:00:52;;;;;;;20.17;18.08;;;25.90;99.90;;;;;;5051964;28;20043;-57
2021/06/27 11:03:42;;;;;;;19.13;17.17;;;26.30;99.90;;;;;;5052333;28;20532;-58
2021/06/27 11:06:17;;;;;;;20.63;16.90;;;26.70;99.90;;;;;;5039757;28;20417;-58
2021/06/27 11:08:48;;;;;;;18.08;16.30;;;27.20;99.90;;;;;;5052354;28;20025;-58
2021/06/27 11:11:20;;;;;;;18.45;16.50;;;27.70;99.90;;;;;;5051680;28;20021;-57
2021/06/27 11:14:11;;;;;;;17.90;16.00;;;28.30;99.90;;;;;;5051742;28;20025;-57
2021/06/27 11:16:59;;;;;;;17.67;15.88;;;28.90;99.90;;;;;;5050837;28;20131;-57
2021/06/27 11:20:02;;;;;;;17.23;15.48;;;30.00;99.90;;;;;;5051549;28;20059;-57
2021/06/27 11:22:28;;;;;;;17.08;15.32;;;30.80;99.90;;;;;;5051751;28;20037;-58
2021/06/27 11:24:56;;;;;;;17.77;15.40;;;30.50;99.50;;;;;;5051745;28;20079;-58
2021/06/27 11:27:29;;;;;;;16.08;13.90;;;30.80;98.30;;;;;;5051186;28;20017;-58
2021/06/27 11:29:56;;;;;;;14.63;12.93;;;31.50;97.40;;;;;;5051593;28;20065;-58
2021/06/27 11:32:25;;;;;;;15.98;13.73;;;32.50;95.90;;;;;;5051106;28;20453;-59
2021/06/27 11:34:57;;;;;;;15.77;14.27;;;33.40;91.40;;;;;;5051779;28;20033;-58
2021/06/27 11:37:23;;;;;;;16.10;14.60;;;31.60;92.30;;;;;;5051485;28;20434;-59
2021/06/27 11:39:50;;;;;;;16.88;15.18;;;30.70;94.30;;;;;;5051127;28;20079;-58
2021/06/27 11:42:29;;;;;;;18.38;16.02;;;29.90;95.60;;;;;;5051032;28;20028;-59
2021/06/27 11:45:06;;;;;;;16.58;15.05;;;29.70;96.10;;;;;;5051378;28;20132;-59
2021/06/27 11:47:35;;;;;;;17.25;15.43;;;29.90;95.30;;;;;;5050957;28;20115;-59
2021/06/27 11:50:20;;;;;;;17.38;15.70;;;29.40;95.80;;;;;;5050863;28;20021;-59
2021/06/27 11:52:57;;;;;;;16.98;15.27;;;29.10;97.10;;;;;;5032803;28;20044;-59
2021/06/27 11:55:34;;;;;;;16.95;15.25;;;29.20;96.50;;;;;;5051009;28;20021;-59
2021/06/27 11:58:01;;;;;;;15.90;14.50;;;28.90;98.20;;;;;;5050941;28;20028;-59
2021/06/27 12:00:42;;;;;;;16.00;14.45;;;29.10;97.50;;;;;;5050675;28;20025;-59
2021/06/27 12:03:18;;;;;;;15.70;14.10;;;29.50;96.90;;;;;;5050812;28;20024;-59
2021/06/27 12:05:59;;;;;;;16.35;14.70;;;29.00;97.10;;;;;;5050573;28;20025;-59
2021/06/27 12:08:25;;;;;;;16.98;15.48;;;28.70;98.00;;;;;;5050911;28;20027;-59
2021/06/27 12:10:55;;;;;;;17.38;15.65;;;28.30;98.50;;;;;;5050695;28;20032;-60
2021/06/27 12:13:23;;;;;;;19.60;15.75;;;27.70;99.90;;;;;;5050896;28;20025;-59
2021/06/27 12:15:51;;;;;;;17.80;15.65;;;27.30;99.90;;;;;;5050814;28;20107;-59
2021/06/27 12:18:22;;;;;;;17.27;15.55;;;27.10;99.90;;;;;;5051042;28;20017;-59
2021/06/27 12:20:52;;;;;;;17.58;14.98;;;27.00;99.90;;;;;;5050847;28;20029;-59
2021/06/27 12:23:19;;;;;;;16.77;15.07;;;26.50;99.90;;;;;;5050710;28;20021;-59
2021/06/27 12:25:57;;;;;;;17.35;15.20;;;26.10;99.90;;;;;;5050852;28;20037;-59
2021/06/27 12:28:47;;;;;;;16.10;14.70;;;26.00;99.90;;;;;;5050522;28;20064;-59
2021/06/27 12:31:21;;;;;;;15.73;14.13;;;25.80;99.90;;;;;;5054652;28;20635;-59